sensor_id;sensor_type;location;lat;lon;timestamp;pressure;altitude;pressure_sealevel;temperature;humidity
21129;BME280;10722;51.910;8.352;2024-03-08T00:02:13;101126.31;;;2.77;76.80
21129;BME280;10722;51.910;8.352;2024-03-08T00:04:58;101123.28;;;2.84;76.86
21129;BME280;10722;51.910;8.352;2024-03-08T00:07:43;101099.06;;;2.77;76.45
21129;BME280;10722;51.910;8.352;2024-03-08T00:10:28;101111.41;;;2.69;76.77
21129;BME280;10722;51.910;8.352;2024-03-08T00:13:14;101114.94;;;2.72;76.71
21129;BME280;10722;51.910;8.352;2024-03-08T00:15:59;101102.72;;;2.66;76.63
21129;BME280;10722;51.910;8.352;2024-03-08T00:18:43;101113.84;;;2.83;76.60
21129;BME280;10722;51.910;8.352;2024-03-08T00:21:29;101105.69;;;2.74;76.69
21129;BME280;10722;51.910;8.352;2024-03-08T00:24:14;101108.00;;;2.69;76.84
21129;BME280;10722;51.910;8.352;2024-03-08T00:26:59;101101.13;;;2.68;77.21
21129;BME280;10722;51.910;8.352;2024-03-08T00:29:44;101105.75;;;2.75;76.80
21129;BME280;10722;51.910;8.352;2024-03-08T00:32:29;101103.03;;;2.72;76.64
21129;BME280;10722;51.910;8.352;2024-03-08T00:35:15;101105.28;;;2.66;76.92
21129;BME280;10722;51.910;8.352;2024-03-08T00:37:59;101107.19;;;2.70;76.90
21129;BME280;10722;51.910;8.352;2024-03-08T00:40:45;101099.28;;;2.65;76.92
21129;BME280;10722;51.910;8.352;2024-03-08T00:43:30;101098.16;;;2.60;76.65
21129;BME280;10722;51.910;8.352;2024-03-08T00:46:15;101096.41;;;2.59;77.02
21129;BME280;10722;51.910;8.352;2024-03-08T00:49:00;101091.69;;;2.67;77.12
21129;BME280;10722;51.910;8.352;2024-03-08T00:51:45;101086.25;;;2.61;77.04
21129;BME280;10722;51.910;8.352;2024-03-08T00:54:30;101088.19;;;2.50;77.15
21129;BME280;10722;51.910;8.352;2024-03-08T00:57:15;101076.41;;;2.52;77.17
21129;BME280;10722;51.910;8.352;2024-03-08T01:00:03;101086.25;;;2.61;77.03
21129;BME280;10722;51.910;8.352;2024-03-08T01:02:48;101075.44;;;2.50;77.16
21129;BME280;10722;51.910;8.352;2024-03-08T01:05:33;101068.47;;;2.62;77.02
21129;BME280;10722;51.910;8.352;2024-03-08T01:08:19;101068.91;;;2.55;77.19
21129;BME280;10722;51.910;8.352;2024-03-08T01:11:06;101053.34;;;2.36;77.26
21129;BME280;10722;51.910;8.352;2024-03-08T01:13:51;101066.81;;;2.48;77.35
21129;BME280;10722;51.910;8.352;2024-03-08T01:16:36;101052.28;;;2.47;77.06
21129;BME280;10722;51.910;8.352;2024-03-08T01:19:21;101053.88;;;2.45;77.19
21129;BME280;10722;51.910;8.352;2024-03-08T01:22:06;101051.69;;;2.36;77.38
21129;BME280;10722;51.910;8.352;2024-03-08T01:24:51;101052.81;;;2.41;77.41
21129;BME280;10722;51.910;8.352;2024-03-08T01:27:36;101043.56;;;2.43;77.18
21129;BME280;10722;51.910;8.352;2024-03-08T01:30:21;101038.41;;;2.58;77.28
21129;BME280;10722;51.910;8.352;2024-03-08T01:33:06;101032.00;;;2.50;77.27
21129;BME280;10722;51.910;8.352;2024-03-08T01:35:52;101022.81;;;2.37;77.06
21129;BME280;10722;51.910;8.352;2024-03-08T01:38:37;101023.41;;;2.48;76.92
21129;BME280;10722;51.910;8.352;2024-03-08T01:41:22;101014.13;;;2.34;77.10
21129;BME280;10722;51.910;8.352;2024-03-08T01:44:07;101011.03;;;2.39;77.33
21129;BME280;10722;51.910;8.352;2024-03-08T01:46:53;101013.75;;;2.42;77.21
21129;BME280;10722;51.910;8.352;2024-03-08T01:49:38;101007.28;;;2.49;77.20
21129;BME280;10722;51.910;8.352;2024-03-08T01:52:23;100998.25;;;2.39;77.38
21129;BME280;10722;51.910;8.352;2024-03-08T01:55:08;101004.13;;;2.38;77.42
21129;BME280;10722;51.910;8.352;2024-03-08T01:57:54;100994.41;;;2.31;77.54
21129;BME280;10722;51.910;8.352;2024-03-08T02:00:40;100998.00;;;2.35;77.55
21129;BME280;10722;51.910;8.352;2024-03-08T02:03:25;100996.94;;;2.31;77.35
21129;BME280;10722;51.910;8.352;2024-03-08T02:06:13;100990.50;;;2.38;77.39
21129;BME280;10722;51.910;8.352;2024-03-08T02:08:59;100990.78;;;2.28;77.31
21129;BME280;10722;51.910;8.352;2024-03-08T02:11:46;100991.75;;;2.30;77.58
21129;BME280;10722;51.910;8.352;2024-03-08T02:14:31;100999.88;;;2.22;78.01
21129;BME280;10722;51.910;8.352;2024-03-08T02:17:16;100998.09;;;2.21;78.02
21129;BME280;10722;51.910;8.352;2024-03-08T02:20:01;100996.97;;;2.16;78.03
21129;BME280;10722;51.910;8.352;2024-03-08T02:22:47;100987.38;;;2.12;77.84
21129;BME280;10722;51.910;8.352;2024-03-08T02:25:32;100988.91;;;2.09;77.98
21129;BME280;10722;51.910;8.352;2024-03-08T02:28:17;100979.81;;;1.99;77.98
21129;BME280;10722;51.910;8.352;2024-03-08T02:31:02;100983.53;;;2.04;78.26
21129;BME280;10722;51.910;8.352;2024-03-08T02:33:48;100979.75;;;1.97;78.52
21129;BME280;10722;51.910;8.352;2024-03-08T02:36:33;100986.25;;;2.07;78.14
21129;BME280;10722;51.910;8.352;2024-03-08T02:39:18;100974.53;;;2.11;78.21
21129;BME280;10722;51.910;8.352;2024-03-08T02:42:03;100970.88;;;2.22;77.79
21129;BME280;10722;51.910;8.352;2024-03-08T02:44:48;100960.34;;;2.16;76.99
21129;BME280;10722;51.910;8.352;2024-03-08T02:47:33;100957.25;;;2.21;77.60
21129;BME280;10722;51.910;8.352;2024-03-08T02:50:18;100950.94;;;2.15;77.57
21129;BME280;10722;51.910;8.352;2024-03-08T02:53:04;100953.66;;;2.18;77.62
21129;BME280;10722;51.910;8.352;2024-03-08T02:55:49;100952.19;;;2.07;78.09
21129;BME280;10722;51.910;8.352;2024-03-08T02:58:33;100957.78;;;2.16;78.10
21129;BME280;10722;51.910;8.352;2024-03-08T03:01:18;100954.09;;;2.11;77.94
21129;BME280;10722;51.910;8.352;2024-03-08T03:04:04;100953.88;;;2.06;78.11
21129;BME280;10722;51.910;8.352;2024-03-08T03:06:49;100952.19;;;2.07;78.33
21129;BME280;10722;51.910;8.352;2024-03-08T03:09:34;100957.72;;;2.14;78.23
21129;BME280;10722;51.910;8.352;2024-03-08T03:12:18;100957.84;;;2.01;78.37
21129;BME280;10722;51.910;8.352;2024-03-08T03:15:04;100955.19;;;2.14;78.32
21129;BME280;10722;51.910;8.352;2024-03-08T03:17:50;100951.56;;;2.11;78.39
21129;BME280;10722;51.910;8.352;2024-03-08T03:20:36;100944.59;;;2.08;78.45
21129;BME280;10722;51.910;8.352;2024-03-08T03:23:21;100946.91;;;2.04;78.46
21129;BME280;10722;51.910;8.352;2024-03-08T03:26:06;100941.47;;;1.97;78.40
21129;BME280;10722;51.910;8.352;2024-03-08T03:28:51;100945.34;;;2.06;78.31
21129;BME280;10722;51.910;8.352;2024-03-08T03:31:36;100931.28;;;1.83;78.78
21129;BME280;10722;51.910;8.352;2024-03-08T03:34:21;100939.31;;;1.89;78.99
21129;BME280;10722;51.910;8.352;2024-03-08T03:37:06;100944.81;;;1.96;78.62
21129;BME280;10722;51.910;8.352;2024-03-08T03:39:51;100942.91;;;1.92;78.78
21129;BME280;10722;51.910;8.352;2024-03-08T03:42:36;100935.84;;;1.88;78.75
21129;BME280;10722;51.910;8.352;2024-03-08T03:45:21;100931.72;;;1.90;78.84
21129;BME280;10722;51.910;8.352;2024-03-08T03:48:07;100925.25;;;1.81;78.89
21129;BME280;10722;51.910;8.352;2024-03-08T03:50:52;100921.78;;;1.95;78.82
21129;BME280;10722;51.910;8.352;2024-03-08T03:53:37;100915.09;;;1.82;78.77
21129;BME280;10722;51.910;8.352;2024-03-08T03:56:26;100920.72;;;1.91;78.84
21129;BME280;10722;51.910;8.352;2024-03-08T03:59:11;100916.69;;;1.80;78.89
21129;BME280;10722;51.910;8.352;2024-03-08T04:01:56;100918.63;;;1.84;78.80
21129;BME280;10722;51.910;8.352;2024-03-08T04:04:41;100910.16;;;1.85;78.67
21129;BME280;10722;51.910;8.352;2024-03-08T04:07:26;100897.78;;;1.76;78.89
21129;BME280;10722;51.910;8.352;2024-03-08T04:10:11;100901.75;;;1.71;78.66
21129;BME280;10722;51.910;8.352;2024-03-08T04:12:57;100896.41;;;1.67;78.81
21129;BME280;10722;51.910;8.352;2024-03-08T04:15:41;100902.53;;;1.70;78.96
21129;BME280;10722;51.910;8.352;2024-03-08T04:18:28;100904.25;;;1.55;79.24
21129;BME280;10722;51.910;8.352;2024-03-08T04:21:13;100903.44;;;1.56;79.32
21129;BME280;10722;51.910;8.352;2024-03-08T04:23:58;100902.22;;;1.64;79.40
21129;BME280;10722;51.910;8.352;2024-03-08T04:26:43;100905.28;;;1.73;79.23
21129;BME280;10722;51.910;8.352;2024-03-08T04:29:28;100898.25;;;1.69;79.32
21129;BME280;10722;51.910;8.352;2024-03-08T04:32:13;100892.06;;;1.81;78.82
21129;BME280;10722;51.910;8.352;2024-03-08T04:34:57;100873.09;;;1.75;78.86
21129;BME280;10722;51.910;8.352;2024-03-08T04:37:42;100872.91;;;1.72;78.56
21129;BME280;10722;51.910;8.352;2024-03-08T04:40:27;100867.66;;;1.69;78.56
21129;BME280;10722;51.910;8.352;2024-03-08T04:43:12;100857.06;;;1.78;78.45
21129;BME280;10722;51.910;8.352;2024-03-08T04:45:57;100858.38;;;1.71;78.57
21129;BME280;10722;51.910;8.352;2024-03-08T04:48:42;100860.88;;;1.70;78.63
21129;BME280;10722;51.910;8.352;2024-03-08T04:51:27;100850.06;;;1.59;78.53
21129;BME280;10722;51.910;8.352;2024-03-08T04:54:12;100852.19;;;1.66;78.57
21129;BME280;10722;51.910;8.352;2024-03-08T04:56:58;100848.56;;;1.63;78.64
21129;BME280;10722;51.910;8.352;2024-03-08T04:59:43;100844.44;;;1.65;78.51
21129;BME280;10722;51.910;8.352;2024-03-08T05:02:28;100847.84;;;1.65;78.78
21129;BME280;10722;51.910;8.352;2024-03-08T05:05:13;100844.53;;;1.66;78.71
21129;BME280;10722;51.910;8.352;2024-03-08T05:07:58;100831.34;;;1.59;78.88
21129;BME280;10722;51.910;8.352;2024-03-08T05:10:43;100842.25;;;1.56;78.74
21129;BME280;10722;51.910;8.352;2024-03-08T05:13:28;100845.41;;;1.67;78.80
21129;BME280;10722;51.910;8.352;2024-03-08T05:16:13;100833.63;;;1.54;79.03
21129;BME280;10722;51.910;8.352;2024-03-08T05:18:58;100841.31;;;1.39;79.07
21129;BME280;10722;51.910;8.352;2024-03-08T05:21:44;100848.25;;;1.42;79.64
21129;BME280;10722;51.910;8.352;2024-03-08T05:24:29;100860.53;;;1.49;79.40
21129;BME280;10722;51.910;8.352;2024-03-08T05:27:14;100858.88;;;1.49;79.46
21129;BME280;10722;51.910;8.352;2024-03-08T05:29:59;100862.22;;;1.33;79.42
21129;BME280;10722;51.910;8.352;2024-03-08T05:32:44;100864.69;;;1.47;79.77
21129;BME280;10722;51.910;8.352;2024-03-08T05:35:30;100845.38;;;1.36;79.55
21129;BME280;10722;51.910;8.352;2024-03-08T05:38:15;100852.53;;;1.43;79.52
21129;BME280;10722;51.910;8.352;2024-03-08T05:41:03;100852.22;;;1.37;79.75
21129;BME280;10722;51.910;8.352;2024-03-08T05:43:49;100861.03;;;1.27;80.50
21129;BME280;10722;51.910;8.352;2024-03-08T05:46:35;100864.00;;;1.20;80.12
21129;BME280;10722;51.910;8.352;2024-03-08T05:49:20;100868.66;;;1.12;80.13
21129;BME280;10722;51.910;8.352;2024-03-08T05:52:04;100857.84;;;1.16;80.31
21129;BME280;10722;51.910;8.352;2024-03-08T05:54:49;100870.59;;;1.31;80.14
21129;BME280;10722;51.910;8.352;2024-03-08T05:57:35;100868.56;;;1.25;79.99
21129;BME280;10722;51.910;8.352;2024-03-08T06:00:20;100860.38;;;1.31;79.80
21129;BME280;10722;51.910;8.352;2024-03-08T06:03:05;100858.19;;;1.37;79.77
21129;BME280;10722;51.910;8.352;2024-03-08T06:05:50;100852.03;;;1.33;79.83
21129;BME280;10722;51.910;8.352;2024-03-08T06:08:36;100851.34;;;1.21;80.11
21129;BME280;10722;51.910;8.352;2024-03-08T06:11:21;100854.66;;;1.20;79.70
21129;BME280;10722;51.910;8.352;2024-03-08T06:14:06;100869.06;;;1.34;80.01
21129;BME280;10722;51.910;8.352;2024-03-08T06:16:52;100864.44;;;1.27;80.13
21129;BME280;10722;51.910;8.352;2024-03-08T06:19:37;100873.13;;;1.31;80.30
21129;BME280;10722;51.910;8.352;2024-03-08T06:22:22;100867.75;;;1.26;80.02
21129;BME280;10722;51.910;8.352;2024-03-08T06:25:13;100872.44;;;1.33;80.46
21129;BME280;10722;51.910;8.352;2024-03-08T06:27:58;100870.31;;;1.41;79.97
21129;BME280;10722;51.910;8.352;2024-03-08T06:30:43;100862.22;;;1.48;80.27
21129;BME280;10722;51.910;8.352;2024-03-08T06:33:29;100854.84;;;1.53;79.73
21129;BME280;10722;51.910;8.352;2024-03-08T06:36:16;100852.13;;;1.50;79.81
21129;BME280;10722;51.910;8.352;2024-03-08T06:39:01;100845.56;;;1.70;79.52
21129;BME280;10722;51.910;8.352;2024-03-08T06:41:46;100829.56;;;1.72;79.09
21129;BME280;10722;51.910;8.352;2024-03-08T06:44:31;100826.22;;;1.90;78.49
21129;BME280;10722;51.910;8.352;2024-03-08T06:47:16;100821.19;;;2.22;78.34
21129;BME280;10722;51.910;8.352;2024-03-08T06:50:01;100807.34;;;2.52;77.18
21129;BME280;10722;51.910;8.352;2024-03-08T06:52:46;100781.28;;;2.41;76.67
21129;BME280;10722;51.910;8.352;2024-03-08T06:55:31;100778.19;;;2.64;76.62
21129;BME280;10722;51.910;8.352;2024-03-08T06:58:17;100767.09;;;2.64;75.99
21129;BME280;10722;51.910;8.352;2024-03-08T07:01:02;100777.69;;;2.88;75.83
21129;BME280;10722;51.910;8.352;2024-03-08T07:03:47;100742.25;;;2.96;74.83
21129;BME280;10722;51.910;8.352;2024-03-08T07:06:32;100731.28;;;2.80;74.56
21129;BME280;10722;51.910;8.352;2024-03-08T07:09:17;100721.81;;;2.96;74.23
21129;BME280;10722;51.910;8.352;2024-03-08T07:12:03;100724.53;;;3.17;73.76
21129;BME280;10722;51.910;8.352;2024-03-08T07:14:49;100713.16;;;3.29;73.40
21129;BME280;10722;51.910;8.352;2024-03-08T07:17:34;100705.94;;;3.39;72.73
21129;BME280;10722;51.910;8.352;2024-03-08T07:20:20;100704.84;;;3.71;72.30
21129;BME280;10722;51.910;8.352;2024-03-08T07:23:05;100673.25;;;3.51;71.87
21129;BME280;10722;51.910;8.352;2024-03-08T07:25:50;100691.78;;;3.84;72.02
21129;BME280;10722;51.910;8.352;2024-03-08T07:28:35;100660.59;;;3.54;71.96
21129;BME280;10722;51.910;8.352;2024-03-08T07:31:20;100676.75;;;3.16;72.34
21129;BME280;10722;51.910;8.352;2024-03-08T07:34:05;100689.66;;;3.36;72.34
21129;BME280;10722;51.910;8.352;2024-03-08T07:36:50;100678.97;;;3.45;71.82
21129;BME280;10722;51.910;8.352;2024-03-08T07:39:36;100675.53;;;3.45;71.70
21129;BME280;10722;51.910;8.352;2024-03-08T07:42:21;100663.66;;;3.09;72.19
21129;BME280;10722;51.910;8.352;2024-03-08T07:45:06;100667.03;;;3.08;72.23
21129;BME280;10722;51.910;8.352;2024-03-08T07:47:52;100689.97;;;3.07;73.23
21129;BME280;10722;51.910;8.352;2024-03-08T07:50:37;100692.88;;;3.14;72.86
21129;BME280;10722;51.910;8.352;2024-03-08T07:53:22;100690.53;;;3.01;73.07
21129;BME280;10722;51.910;8.352;2024-03-08T07:56:07;100703.09;;;3.14;73.30
21129;BME280;10722;51.910;8.352;2024-03-08T07:58:52;100702.00;;;3.09;73.38
21129;BME280;10722;51.910;8.352;2024-03-08T08:01:37;100700.16;;;3.43;72.92
21129;BME280;10722;51.910;8.352;2024-03-08T08:04:23;100692.97;;;3.53;73.11
21129;BME280;10722;51.910;8.352;2024-03-08T08:07:08;100686.59;;;3.82;72.06
21129;BME280;10722;51.910;8.352;2024-03-08T08:09:53;100671.03;;;3.97;71.62
21129;BME280;10722;51.910;8.352;2024-03-08T08:12:38;100645.13;;;4.11;70.99
21129;BME280;10722;51.910;8.352;2024-03-08T08:15:23;100648.22;;;4.23;70.73
21129;BME280;10722;51.910;8.352;2024-03-08T08:18:08;100631.75;;;4.37;70.28
21129;BME280;10722;51.910;8.352;2024-03-08T08:20:53;100629.91;;;4.77;70.15
21129;BME280;10722;51.910;8.352;2024-03-08T08:23:38;100623.94;;;4.78;69.74
21129;BME280;10722;51.910;8.352;2024-03-08T08:26:22;100616.56;;;4.85;69.35
21129;BME280;10722;51.910;8.352;2024-03-08T08:29:08;100578.56;;;4.98;67.96
21129;BME280;10722;51.910;8.352;2024-03-08T08:31:52;100580.72;;;5.09;68.07
21129;BME280;10722;51.910;8.352;2024-03-08T08:34:37;100583.31;;;5.33;67.90
21129;BME280;10722;51.910;8.352;2024-03-08T08:37:22;100586.91;;;5.62;67.70
21129;BME280;10722;51.910;8.352;2024-03-08T08:40:10;100562.09;;;5.61;66.81
21129;BME280;10722;51.910;8.352;2024-03-08T08:42:56;100558.03;;;5.68;66.66
21129;BME280;10722;51.910;8.352;2024-03-08T08:45:41;100546.78;;;5.90;65.96
21129;BME280;10722;51.910;8.352;2024-03-08T08:48:26;100533.88;;;5.63;66.07
21129;BME280;10722;51.910;8.352;2024-03-08T08:51:12;100540.63;;;5.59;66.32
21129;BME280;10722;51.910;8.352;2024-03-08T08:53:57;100523.34;;;5.30;66.70
21129;BME280;10722;51.910;8.352;2024-03-08T08:56:42;100559.78;;;5.45;67.11
21129;BME280;10722;51.910;8.352;2024-03-08T08:59:27;100551.25;;;5.70;66.72
21129;BME280;10722;51.910;8.352;2024-03-08T09:02:13;100533.41;;;5.73;66.16
21129;BME280;10722;51.910;8.352;2024-03-08T09:05:02;100558.72;;;6.39;65.91
21129;BME280;10722;51.910;8.352;2024-03-08T09:07:47;100537.81;;;6.28;65.70
21129;BME280;10722;51.910;8.352;2024-03-08T09:10:33;100512.31;;;6.35;65.12
21129;BME280;10722;51.910;8.352;2024-03-08T09:13:17;100492.72;;;6.38;64.53
21129;BME280;10722;51.910;8.352;2024-03-08T09:16:16;100482.94;;;6.26;64.79
21129;BME280;10722;51.910;8.352;2024-03-08T09:19:01;100477.19;;;6.34;64.29
21129;BME280;10722;51.910;8.352;2024-03-08T09:21:46;100470.78;;;6.49;64.45
21129;BME280;10722;51.910;8.352;2024-03-08T09:24:31;100472.75;;;6.58;64.08
21129;BME280;10722;51.910;8.352;2024-03-08T09:27:17;100437.59;;;6.57;63.05
21129;BME280;10722;51.910;8.352;2024-03-08T09:30:02;100442.47;;;6.78;63.23
21129;BME280;10722;51.910;8.352;2024-03-08T09:32:47;100435.38;;;6.69;63.04
21129;BME280;10722;51.910;8.352;2024-03-08T09:35:33;100416.91;;;6.53;63.16
21129;BME280;10722;51.910;8.352;2024-03-08T09:38:17;100404.44;;;6.66;62.78
21129;BME280;10722;51.910;8.352;2024-03-08T09:41:02;100432.47;;;6.87;63.12
21129;BME280;10722;51.910;8.352;2024-03-08T09:43:48;100440.25;;;7.22;63.48
21129;BME280;10722;51.910;8.352;2024-03-08T09:46:33;100388.31;;;7.04;62.12
21129;BME280;10722;51.910;8.352;2024-03-08T09:49:19;100384.06;;;7.04;62.16
21129;BME280;10722;51.910;8.352;2024-03-08T09:52:04;100376.66;;;7.16;62.04
21129;BME280;10722;51.910;8.352;2024-03-08T09:54:49;100373.72;;;7.03;62.05
21129;BME280;10722;51.910;8.352;2024-03-08T09:57:36;100405.59;;;7.41;62.33
21129;BME280;10722;51.910;8.352;2024-03-08T10:00:21;100402.25;;;7.45;62.21
21129;BME280;10722;51.910;8.352;2024-03-08T10:03:06;100366.13;;;7.42;61.58
21129;BME280;10722;51.910;8.352;2024-03-08T10:05:51;100371.34;;;7.45;61.71
21129;BME280;10722;51.910;8.352;2024-03-08T10:08:37;100339.88;;;7.55;61.13
21129;BME280;10722;51.910;8.352;2024-03-08T10:11:22;100346.47;;;7.46;61.17
21129;BME280;10722;51.910;8.352;2024-03-08T10:14:08;100300.69;;;6.96;61.09
21129;BME280;10722;51.910;8.352;2024-03-08T10:16:54;100344.88;;;7.49;61.23
21129;BME280;10722;51.910;8.352;2024-03-08T10:19:49;100331.28;;;7.55;61.26
21129;BME280;10722;51.910;8.352;2024-03-08T10:22:34;100318.81;;;7.73;60.54
21129;BME280;10722;51.910;8.352;2024-03-08T10:25:19;100304.81;;;8.01;60.10
21129;BME280;10722;51.910;8.352;2024-03-08T10:28:05;100280.78;;;8.02;59.41
21129;BME280;10722;51.910;8.352;2024-03-08T10:30:50;100317.56;;;8.36;60.14
21129;BME280;10722;51.910;8.352;2024-03-08T10:33:36;100306.84;;;8.57;59.61
21129;BME280;10722;51.910;8.352;2024-03-08T10:36:21;100280.41;;;8.67;58.69
21129;BME280;10722;51.910;8.352;2024-03-08T10:39:15;100289.16;;;8.77;58.84
21129;BME280;10722;51.910;8.352;2024-03-08T10:42:04;100258.09;;;8.71;58.47
21129;BME280;10722;51.910;8.352;2024-03-08T10:45:09;100249.75;;;8.84;58.05
21129;BME280;10722;51.910;8.352;2024-03-08T10:48:10;100283.97;;;9.27;58.34
21129;BME280;10722;51.910;8.352;2024-03-08T10:51:02;100217.34;;;8.51;58.19
21129;BME280;10722;51.910;8.352;2024-03-08T10:53:47;100250.50;;;8.80;58.39
21129;BME280;10722;51.910;8.352;2024-03-08T10:56:34;100210.50;;;9.05;57.27
21129;BME280;10722;51.910;8.352;2024-03-08T10:59:20;100221.28;;;8.80;57.19
21129;BME280;10722;51.910;8.352;2024-03-08T11:02:06;100223.47;;;8.57;57.14
21129;BME280;10722;51.910;8.352;2024-03-08T11:04:51;100269.81;;;9.04;57.85
21129;BME280;10722;51.910;8.352;2024-03-08T11:07:40;100246.97;;;9.27;56.97
21129;BME280;10722;51.910;8.352;2024-03-08T11:10:26;100217.91;;;9.40;56.19
21129;BME280;10722;51.910;8.352;2024-03-08T11:13:37;100171.03;;;9.11;55.28
21129;BME280;10722;51.910;8.352;2024-03-08T11:16:43;100225.25;;;9.14;56.95
21129;BME280;10722;51.910;8.352;2024-03-08T11:19:30;100223.72;;;9.25;56.45
21129;BME280;10722;51.910;8.352;2024-03-08T11:22:23;100230.53;;;9.22;57.10
21129;BME280;10722;51.910;8.352;2024-03-08T11:25:09;100193.47;;;9.16;56.08
21129;BME280;10722;51.910;8.352;2024-03-08T11:33:46;100138.00;;;9.51;54.43
21129;BME280;10722;51.910;8.352;2024-03-08T11:36:34;100118.59;;;9.15;54.27
21129;BME280;10722;51.910;8.352;2024-03-08T11:39:19;100124.84;;;9.31;54.22
21129;BME280;10722;51.910;8.352;2024-03-08T11:42:04;100152.88;;;9.69;54.71
21129;BME280;10722;51.910;8.352;2024-03-08T11:44:50;100126.69;;;9.42;54.17
21129;BME280;10722;51.910;8.352;2024-03-08T11:47:35;100148.63;;;9.75;54.23
21129;BME280;10722;51.910;8.352;2024-03-08T11:50:20;100122.00;;;9.81;53.61
21129;BME280;10722;51.910;8.352;2024-03-08T11:53:06;100149.53;;;10.66;53.34
21129;BME280;10722;51.910;8.352;2024-03-08T11:55:51;100130.78;;;10.93;52.67
21129;BME280;10722;51.910;8.352;2024-03-08T11:58:36;100079.84;;;10.87;51.50
21129;BME280;10722;51.910;8.352;2024-03-08T12:01:22;100042.03;;;9.92;52.04
21129;BME280;10722;51.910;8.352;2024-03-08T12:04:12;100073.63;;;10.61;52.08
21129;BME280;10722;51.910;8.352;2024-03-08T12:07:00;100053.03;;;10.77;51.42
21129;BME280;10722;51.910;8.352;2024-03-08T12:10:19;100046.00;;;10.58;51.72
21129;BME280;10722;51.910;8.352;2024-03-08T12:13:06;100067.47;;;10.42;51.79
21129;BME280;10722;51.910;8.352;2024-03-08T12:15:51;100057.06;;;10.39;51.54
21129;BME280;10722;51.910;8.352;2024-03-08T12:18:38;100062.47;;;10.72;51.23
21129;BME280;10722;51.910;8.352;2024-03-08T12:21:26;100054.59;;;10.48;51.34
21129;BME280;10722;51.910;8.352;2024-03-08T12:24:15;100057.09;;;10.40;51.69
21129;BME280;10722;51.910;8.352;2024-03-08T12:27:00;100078.78;;;10.56;51.93
21129;BME280;10722;51.910;8.352;2024-03-08T12:29:45;100098.84;;;10.91;52.49
21129;BME280;10722;51.910;8.352;2024-03-08T12:32:30;100039.19;;;10.68;51.70
21129;BME280;10722;51.910;8.352;2024-03-08T12:35:16;100034.31;;;11.37;50.60
21129;BME280;10722;51.910;8.352;2024-03-08T12:38:01;99973.59;;;10.61;49.66
21129;BME280;10722;51.910;8.352;2024-03-08T12:40:46;99977.88;;;10.53;50.17
21129;BME280;10722;51.910;8.352;2024-03-08T12:43:32;100003.13;;;11.06;50.39
21129;BME280;10722;51.910;8.352;2024-03-08T12:46:18;99999.88;;;11.64;49.91
21129;BME280;10722;51.910;8.352;2024-03-08T12:49:03;99919.44;;;10.96;48.49
21129;BME280;10722;51.910;8.352;2024-03-08T12:51:48;99961.81;;;11.34;49.00
21129;BME280;10722;51.910;8.352;2024-03-08T12:54:34;99942.00;;;11.57;48.94
21129;BME280;10722;51.910;8.352;2024-03-08T12:57:19;99920.38;;;11.34;48.54
21129;BME280;10722;51.910;8.352;2024-03-08T13:00:04;99952.38;;;12.05;48.42
21129;BME280;10722;51.910;8.352;2024-03-08T13:02:50;99929.88;;;12.31;47.98
21129;BME280;10722;51.910;8.352;2024-03-08T13:05:35;99915.19;;;12.33;47.69
21129;BME280;10722;51.910;8.352;2024-03-08T13:08:21;99935.13;;;12.08;48.42
21129;BME280;10722;51.910;8.352;2024-03-08T13:11:09;99891.06;;;11.88;47.58
21129;BME280;10722;51.910;8.352;2024-03-08T13:13:54;99905.72;;;12.11;47.33
21129;BME280;10722;51.910;8.352;2024-03-08T13:16:39;99912.47;;;12.69;47.00
21129;BME280;10722;51.910;8.352;2024-03-08T13:19:24;99893.63;;;12.07;47.50
21129;BME280;10722;51.910;8.352;2024-03-08T13:22:09;99865.88;;;12.40;46.34
21129;BME280;10722;51.910;8.352;2024-03-08T13:24:55;99855.59;;;12.04;46.64
21129;BME280;10722;51.910;8.352;2024-03-08T13:27:40;99824.56;;;11.05;47.47
21129;BME280;10722;51.910;8.352;2024-03-08T13:30:26;99883.25;;;11.18;48.79
21129;BME280;10722;51.910;8.352;2024-03-08T13:33:11;99875.47;;;11.62;47.86
21129;BME280;10722;51.910;8.352;2024-03-08T13:35:57;99900.53;;;12.09;47.84
21129;BME280;10722;51.910;8.352;2024-03-08T13:38:49;99853.03;;;12.00;46.62
21129;BME280;10722;51.910;8.352;2024-03-08T13:41:34;99822.81;;;11.74;46.48
21129;BME280;10722;51.910;8.352;2024-03-08T13:44:19;99823.69;;;11.58;46.87
21129;BME280;10722;51.910;8.352;2024-03-08T13:47:05;99859.09;;;11.63;47.31
21129;BME280;10722;51.910;8.352;2024-03-08T13:49:50;99838.34;;;11.37;47.56
21129;BME280;10722;51.910;8.352;2024-03-08T13:52:36;99847.84;;;11.43;47.86
21129;BME280;10722;51.910;8.352;2024-03-08T13:55:22;99875.47;;;11.19;48.79
21129;BME280;10722;51.910;8.352;2024-03-08T13:58:08;99853.91;;;11.30;48.05
21129;BME280;10722;51.910;8.352;2024-03-08T14:00:53;99878.91;;;12.15;47.83
21129;BME280;10722;51.910;8.352;2024-03-08T14:03:39;99834.91;;;11.61;47.64
21129;BME280;10722;51.910;8.352;2024-03-08T14:06:24;99847.84;;;11.81;47.84
21129;BME280;10722;51.910;8.352;2024-03-08T14:09:11;99840.00;;;12.18;47.50
21129;BME280;10722;51.910;8.352;2024-03-08T14:11:56;99870.31;;;11.72;49.03
21129;BME280;10722;51.910;8.352;2024-03-08T14:14:42;99868.59;;;11.95;48.85
21129;BME280;10722;51.910;8.352;2024-03-08T14:17:26;99858.09;;;12.38;47.88
21129;BME280;10722;51.910;8.352;2024-03-08T14:20:12;99830.59;;;11.60;48.38
21129;BME280;10722;51.910;8.352;2024-03-08T14:22:57;99832.34;;;11.25;48.87
21129;BME280;10722;51.910;8.352;2024-03-08T14:25:42;99832.31;;;11.06;49.02
21129;BME280;10722;51.910;8.352;2024-03-08T14:28:27;99862.53;;;11.70;49.30
21129;BME280;10722;51.910;8.352;2024-03-08T14:31:13;99820.25;;;11.24;48.98
21129;BME280;10722;51.910;8.352;2024-03-08T14:33:58;99815.03;;;10.93;49.34
21129;BME280;10722;51.910;8.352;2024-03-08T14:36:43;99838.38;;;11.13;49.94
21129;BME280;10722;51.910;8.352;2024-03-08T14:39:28;99833.19;;;11.37;49.23
21129;BME280;10722;51.910;8.352;2024-03-08T14:42:12;99840.09;;;11.97;48.89
21129;BME280;10722;51.910;8.352;2024-03-08T14:44:57;99837.50;;;11.92;49.10